Time;durP1;ratioP1;P1;durP2;ratioP2;P2;SDS_P1;SDS_P2;PMS_P1;PMS_P2;Temp;Humidity;BMP_temperature;BMP_pressure;BME280_temperature;BME280_humidity;BME280_pressure;Samples;Min_cycle;Max_cycle;Signal;HPM_P1;HPM_P2
2023/12/01 00:02:26;;;;;;;47.45;29.88;;;;;;;3.35;69.23;100303.56;5083806;28;20043;-69
2023/12/01 00:04:52;;;;;;;49.33;30.13;;;;;;;3.37;69.59;100298.69;5092869;28;20024;-66
2023/12/01 00:07:17;;;;;;;48.65;31.13;;;;;;;3.37;68.86;100313.25;5093667;28;20031;-67
2023/12/01 00:09:43;;;;;;;52.80;31.77;;;;;;;3.37;69.02;100309.66;5092648;28;20030;-66
2023/12/01 00:12:08;;;;;;;50.88;30.85;;;;;;;3.36;68.86;100311.56;5093281;28;20031;-66
2023/12/01 00:14:33;;;;;;;48.70;30.20;;;;;;;3.37;69.17;100312.41;5093752;28;20036;-67
2023/12/01 00:16:59;;;;;;;48.05;30.83;;;;;;;3.34;69.18;100316.47;5088058;28;20104;-66
2023/12/01 00:19:24;;;;;;;51.90;31.05;;;;;;;3.36;69.19;100318.97;5072826;28;20418;-67
2023/12/01 00:21:49;;;;;;;49.25;30.23;;;;;;;3.35;68.82;100320.03;5078109;28;20035;-69
2023/12/01 00:24:15;;;;;;;49.63;29.98;;;;;;;3.34;68.30;100324.69;5080353;28;20480;-66
2023/12/01 00:26:41;;;;;;;51.22;29.88;;;;;;;3.35;68.63;100317.28;5076166;28;20028;-67
2023/12/01 00:29:09;;;;;;;50.90;29.30;;;;;;;3.34;68.02;100321.06;5082313;28;20107;-66
2023/12/01 00:31:34;;;;;;;48.85;29.50;;;;;;;3.32;67.94;100323.22;5087674;28;20127;-67
2023/12/01 00:34:00;;;;;;;50.28;29.48;;;;;;;3.34;68.23;100321.94;5090788;28;20135;-66
2023/12/01 00:36:25;;;;;;;51.22;29.98;;;;;;;3.34;67.92;100323.81;5093421;28;20498;-66
2023/12/01 00:38:51;;;;;;;50.17;30.33;;;;;;;3.35;67.55;100333.75;5079530;28;20087;-67
2023/12/01 00:41:19;;;;;;;53.28;31.10;;;;;;;3.32;68.23;100334.19;5076294;28;20486;-70
2023/12/01 00:43:44;;;;;;;48.47;29.67;;;;;;;3.33;67.76;100328.47;5085649;28;20674;-67
2023/12/01 00:46:09;;;;;;;49.65;29.13;;;;;;;3.33;67.93;100333.13;5081230;28;20119;-69
2023/12/01 00:48:35;;;;;;;51.78;30.10;;;;;;;3.29;67.86;100338.19;5077565;28;20031;-66
2023/12/01 00:51:02;;;;;;;49.55;28.67;;;;;;;3.31;67.29;100343.47;5080786;28;20020;-66
2023/12/01 00:53:27;;;;;;;49.28;28.08;;;;;;;3.27;67.60;100340.31;5091162;28;20468;-66
2023/12/01 00:55:55;;;;;;;52.47;30.83;;;;;;;3.29;67.94;100342.84;5089760;28;20039;-67
2023/12/01 00:58:21;;;;;;;49.72;28.77;;;;;;;3.25;67.99;100342.44;5082088;28;20388;-67
2023/12/01 01:00:46;;;;;;;48.35;27.52;;;;;;;3.25;67.70;100349.81;5072733;28;20040;-67
2023/12/01 01:03:14;;;;;;;49.25;27.92;;;;;;;3.25;68.42;100338.84;5073147;28;20119;-70
2023/12/01 01:05:39;;;;;;;51.00;28.90;;;;;;;3.20;68.25;100337.59;5080363;28;20039;-67
2023/12/01 01:08:05;;;;;;;52.28;29.63;;;;;;;3.18;68.48;100342.47;5084013;28;20480;-67
2023/12/01 01:10:30;;;;;;;54.80;31.13;;;;;;;3.19;68.81;100343.31;5092826;28;20081;-67
2023/12/01 01:12:55;;;;;;;50.47;29.02;;;;;;;3.17;68.59;100349.00;5080090;28;20035;-67
2023/12/01 01:15:21;;;;;;;51.25;28.13;;;;;;;3.22;68.47;100353.00;5073142;28;20427;-68
2023/12/01 01:17:46;;;;;;;48.83;27.90;;;;;;;3.22;67.84;100358.47;5083398;28;20039;-68
2023/12/01 01:20:12;;;;;;;53.17;28.63;;;;;;;3.24;68.33;100361.84;5072602;28;20028;-67
2023/12/01 01:22:38;;;;;;;52.40;28.00;;;;;;;3.23;68.08;100355.53;5076387;28;20028;-70
2023/12/01 01:25:06;;;;;;;56.47;30.88;;;;;;;3.20;68.71;100359.53;5081505;28;20033;-67
2023/12/01 01:27:32;;;;;;;52.75;29.08;;;;;;;3.20;68.18;100355.97;5071698;28;20040;-67
2023/12/01 01:29:57;;;;;;;54.97;29.92;;;;;;;3.19;68.07;100371.59;5071224;28;20028;-67
2023/12/01 01:32:23;;;;;;;52.65;29.85;;;;;;;3.18;68.36;100360.81;5071924;28;20080;-67
2023/12/01 01:34:48;;;;;;;51.80;28.80;;;;;;;3.19;68.19;100366.09;5078056;28;20040;-67
2023/12/01 01:37:13;;;;;;;54.22;27.77;;;;;;;3.15;67.63;100366.75;5074050;28;20092;-67
2023/12/01 01:39:39;;;;;;;55.35;30.33;;;;;;;3.17;68.26;100368.19;5091311;28;20480;-67
2023/12/01 01:42:04;;;;;;;51.63;28.42;;;;;;;3.17;68.06;100368.19;5083580;28;20124;-69
2023/12/01 01:44:29;;;;;;;53.85;28.67;;;;;;;3.17;68.49;100367.34;5081908;28;20467;-67
2023/12/01 01:46:55;;;;;;;54.80;30.73;;;;;;;3.16;67.78;100365.69;5091109;28;20024;-67
2023/12/01 01:49:26;;;;;;;57.35;29.77;;;;;;;3.15;68.37;100358.53;5082608;28;20032;-67
2023/12/01 01:51:53;;;;;;;53.53;29.58;;;;;;;3.11;68.15;100363.59;5076139;28;20032;-67
2023/12/01 01:54:21;;;;;;;51.15;28.25;;;;;;;3.13;68.49;100377.91;5089525;28;20085;-68
2023/12/01 01:56:47;;;;;;;53.00;29.55;;;;;;;3.11;68.84;100384.69;5091400;28;20066;-67
2023/12/01 01:59:13;;;;;;;56.38;30.20;;;;;;;3.12;68.21;100378.97;5088872;28;20059;-69
2023/12/01 02:01:39;;;;;;;53.15;29.67;;;;;;;3.12;68.58;100380.88;5082863;28;20050;-68
2023/12/01 02:04:07;;;;;;;54.90;29.63;;;;;;;3.07;68.64;100388.94;5081564;28;20029;-67
2023/12/01 02:06:37;;;;;;;56.63;30.35;;;;;;;3.01;68.65;100382.38;5090607;28;20413;-68
2023/12/01 02:09:03;;;;;;;52.70;28.63;;;;;;;3.08;68.20;100385.13;5088548;28;20647;-68
2023/12/01 02:11:28;;;;;;;57.35;30.15;;;;;;;3.02;68.46;100388.72;5078952;28;20020;-67
2023/12/01 02:13:54;;;;;;;53.13;29.55;;;;;;;3.00;68.08;100394.41;5091265;28;20290;-68
2023/12/01 02:16:19;;;;;;;56.67;29.45;;;;;;;3.03;67.80;100395.91;5071292;28;20384;-68
2023/12/01 02:18:48;;;;;;;56.28;29.35;;;;;;;3.01;67.54;100398.00;5081974;28;20032;-70
2023/12/01 02:21:13;;;;;;;55.60;28.52;;;;;;;2.99;67.73;100400.97;5088266;28;20652;-68
2023/12/01 02:23:38;;;;;;;53.83;27.77;;;;;;;3.01;68.03;100398.84;5090594;28;20052;-68
2023/12/01 02:26:04;;;;;;;56.17;28.85;;;;;;;2.99;67.83;100397.34;5086937;28;20028;-67
2023/12/01 02:28:29;;;;;;;51.13;27.38;;;;;;;2.92;67.91;100409.19;5073061;28;20024;-67
2023/12/01 02:30:56;;;;;;;55.10;27.95;;;;;;;2.91;67.30;100401.19;5090437;28;20039;-67
2023/12/01 02:33:23;;;;;;;54.20;27.90;;;;;;;2.95;68.00;100402.44;5088357;28;20020;-68
2023/12/01 02:35:50;;;;;;;56.40;29.10;;;;;;;2.87;68.13;100406.25;5086140;28;20032;-68
2023/12/01 02:38:16;;;;;;;55.53;28.85;;;;;;;2.91;68.00;100407.53;5080454;28;20043;-69
2023/12/01 02:40:49;;;;;;;61.28;31.17;;;;;;;2.89;67.57;100411.53;5075272;28;20035;-67
2023/12/01 02:43:15;;;;;;;56.45;30.17;;;;;;;2.90;67.83;100400.31;5077276;28;20048;-67
2023/12/01 02:45:40;;;;;;;56.35;29.60;;;;;;;2.93;67.60;100399.06;5088875;28;20468;-68
2023/12/01 02:48:06;;;;;;;63.15;31.00;;;;;;;2.93;67.35;100399.06;5096010;28;20047;-68
2023/12/01 02:50:32;;;;;;;62.20;29.55;;;;;;;2.88;67.87;100399.72;5077363;28;20024;-67
2023/12/01 02:52:58;;;;;;;62.38;30.20;;;;;;;2.91;67.64;100396.56;5077464;28;20472;-67
2023/12/01 02:55:23;;;;;;;60.05;31.60;;;;;;;2.89;68.26;100397.81;5090385;28;20115;-67
2023/12/01 02:57:53;;;;;;;58.83;31.02;;;;;;;2.85;67.60;100393.81;5092869;28;20157;-69
2023/12/01 03:00:19;;;;;;;57.90;29.55;;;;;;;2.87;67.23;100395.31;5094496;28;20035;-68
2023/12/01 03:02:44;;;;;;;56.50;29.65;;;;;;;2.87;67.94;100397.16;5096709;28;20124;-68
2023/12/01 03:05:11;;;;;;;56.70;30.00;;;;;;;2.90;67.95;100396.75;5082755;28;20059;-67
2023/12/01 03:07:39;;;;;;;63.47;30.80;;;;;;;2.89;68.33;100397.81;5077314;28;20032;-68
2023/12/01 03:10:09;;;;;;;60.13;31.13;;;;;;;2.91;67.67;100390.22;5080281;28;20067;-68
2023/12/01 03:12:38;;;;;;;62.53;31.88;;;;;;;2.83;68.60;100398.66;5076897;28;20043;-68
2023/12/01 03:15:05;;;;;;;61.90;31.77;;;;;;;2.86;68.58;100398.22;5084185;28;20077;-69
2023/12/01 03:17:31;;;;;;;57.22;30.08;;;;;;;2.83;68.34;100402.25;5095413;28;20036;-67
2023/12/01 03:19:57;;;;;;;64.05;32.00;;;;;;;2.85;68.55;100396.56;5094745;28;20030;-67
2023/12/01 03:22:23;;;;;;;65.55;30.10;;;;;;;2.84;68.05;100400.38;5097054;28;20107;-68
2023/12/01 03:24:53;;;;;;;61.30;30.45;;;;;;;2.85;68.54;100408.34;5087342;28;20637;-67
2023/12/01 03:27:19;;;;;;;63.65;32.33;;;;;;;2.86;68.55;100404.56;5096124;28;20801;-67
2023/12/01 03:29:44;;;;;;;60.45;30.38;;;;;;;2.86;68.12;100403.72;5092962;28;20119;-67
2023/12/01 03:32:10;;;;;;;65.15;30.75;;;;;;;2.85;68.77;100413.84;5086248;28;20151;-69
2023/12/01 03:34:35;;;;;;;65.68;31.05;;;;;;;2.85;68.35;100408.34;5084546;28;20107;-69
2023/12/01 03:37:01;;;;;;;68.13;32.47;;;;;;;2.82;68.63;100407.94;5095731;28;20066;-67
2023/12/01 03:39:26;;;;;;;62.10;29.63;;;;;;;2.79;69.23;100411.09;5096604;28;20467;-68
2023/12/01 03:41:52;;;;;;;67.65;31.10;;;;;;;2.76;69.30;100411.56;5078113;28;20050;-67
2023/12/01 03:44:18;;;;;;;62.20;30.13;;;;;;;2.76;69.54;100406.91;5076981;28;20464;-67
2023/12/01 03:46:44;;;;;;;69.25;32.15;;;;;;;2.81;68.68;100406.25;5082421;28;20845;-67
2023/12/01 03:49:09;;;;;;;74.43;34.15;;;;;;;2.78;69.19;100412.16;5083220;28;20039;-68
2023/12/01 03:51:35;;;;;;;67.85;32.17;;;;;;;2.81;69.06;100412.59;5092679;28;20486;-70
2023/12/01 03:54:01;;;;;;;73.70;34.47;;;;;;;2.81;69.06;100417.22;5079441;28;20032;-67
2023/12/01 03:56:26;;;;;;;74.93;35.60;;;;;;;2.81;68.88;100420.81;5089410;28;20024;-67
2023/12/01 03:58:57;;;;;;;75.70;36.00;;;;;;;2.81;68.78;100428.19;5085078;28;20103;-67
2023/12/01 04:01:23;;;;;;;79.03;36.60;;;;;;;2.81;69.20;100422.72;5082127;28;20111;-67
2023/12/01 04:03:48;;;;;;;83.85;38.33;;;;;;;2.82;69.60;100429.88;5075486;28;20116;-68
2023/12/01 04:06:13;;;;;;;81.82;37.08;;;;;;;2.81;69.14;100434.50;5080879;28;20032;-68
2023/12/01 04:08:39;;;;;;;83.40;35.78;;;;;;;2.82;69.09;100438.09;5075177;28;20036;-69
2023/12/01 04:11:06;;;;;;;79.97;34.75;;;;;;;2.78;69.64;100440.41;5083093;28;20036;-67
2023/12/01 04:13:32;;;;;;;75.85;32.90;;;;;;;2.79;69.23;100433.03;5077647;28;20467;-67
2023/12/01 04:15:57;;;;;;;76.32;33.90;;;;;;;2.75;68.92;100440.00;5075429;28;20029;-68
2023/12/01 04:18:22;;;;;;;74.38;34.28;;;;;;;2.73;68.74;100447.59;5073200;28;20028;-67
2023/12/01 04:20:48;;;;;;;71.00;32.70;;;;;;;2.71;69.13;100445.06;5080304;28;20065;-68
2023/12/01 04:23:17;;;;;;;74.10;32.40;;;;;;;2.73;68.64;100458.56;5084340;28;20479;-68
2023/12/01 04:25:46;;;;;;;70.95;29.65;;;;;;;2.70;68.56;100452.44;5090644;28;20049;-66
2023/12/01 04:28:13;;;;;;;71.05;30.90;;;;;;;2.64;68.65;100456.03;5086432;28;20032;-69
2023/12/01 04:30:40;;;;;;;70.18;30.02;;;;;;;2.63;68.90;100464.44;5076043;28;20048;-67
2023/12/01 04:33:06;;;;;;;69.68;30.13;;;;;;;2.61;68.67;100459.19;5073408;28;20037;-67
2023/12/01 04:35:34;;;;;;;74.80;30.23;;;;;;;2.62;69.24;100463.59;5080734;28;20129;-67
2023/12/01 04:38:03;;;;;;;69.43;30.90;;;;;;;2.61;69.03;100461.94;5089615;28;20028;-67
2023/12/01 04:40:30;;;;;;;78.13;31.98;;;;;;;2.58;69.00;100462.34;5087763;28;20021;-67
2023/12/01 04:42:56;;;;;;;74.10;30.55;;;;;;;2.56;69.18;100463.63;5081373;28;20032;-67
2023/12/01 04:45:24;;;;;;;77.28;33.58;;;;;;;2.56;70.12;100463.63;5081376;28;20182;-67
2023/12/01 04:47:51;;;;;;;79.50;32.50;;;;;;;2.55;69.77;100467.41;5074875;28;20035;-69
2023/12/01 04:50:18;;;;;;;76.25;33.72;;;;;;;2.58;70.51;100470.56;5081933;28;20134;-68
2023/12/01 04:52:49;;;;;;;81.25;35.70;;;;;;;2.57;69.90;100471.63;5083487;28;20028;-67
2023/12/01 04:55:17;;;;;;;78.68;34.88;;;;;;;2.56;70.43;100483.66;5073037;28;20389;-67
2023/12/01 04:57:44;;;;;;;75.55;33.75;;;;;;;2.59;70.62;100488.69;5071420;28;20093;-67
2023/12/01 05:00:21;;;;;;;79.35;34.90;;;;;;;2.60;70.44;100484.91;5077497;28;20114;-68
2023/12/01 05:02:55;;;;;;;78.72;32.90;;;;;;;2.62;70.83;100491.00;5083157;28;20450;-69
2023/12/01 05:05:22;;;;;;;80.88;34.42;;;;;;;2.60;70.15;100484.91;5087064;28;20503;-67
2023/12/01 05:07:52;;;;;;;74.72;33.22;;;;;;;2.61;70.47;100488.50;5092108;28;20035;-67
2023/12/01 05:10:24;;;;;;;82.10;36.47;;;;;;;2.63;70.20;100495.47;5092269;28;20032;-67
2023/12/01 05:12:50;;;;;;;;;;;;;;;2.79;70.11;100501.53;5079641;28;20037;-67
2023/12/01 05:15:21;;;;;;;74.72;33.67;;;;;;;2.66;70.04;100491.44;5081707;28;20363;-67
2023/12/01 05:17:54;;;;;;;75.78;33.42;;;;;;;2.61;69.66;100497.53;5081466;28;20384;-68
2023/12/01 05:20:20;;;;;;;77.30;33.40;;;;;;;2.62;70.12;100490.16;5072161;28;20040;-67
2023/12/01 05:22:47;;;;;;;79.35;35.20;;;;;;;2.61;70.14;100499.44;5077215;28;20043;-69
2023/12/01 05:25:17;;;;;;;78.95;35.20;;;;;;;2.64;70.00;100499.03;5091664;28;20086;-67
2023/12/01 05:27:48;;;;;;;77.50;35.92;;;;;;;2.65;69.92;100507.03;5082624;28;20096;-67
2023/12/01 05:30:15;;;;;;;82.78;36.47;;;;;;;2.65;69.74;100507.03;5088798;28;20119;-67
2023/12/01 05:32:41;;;;;;;86.63;38.40;;;;;;;2.67;70.25;100507.69;5085350;28;20052;-66
2023/12/01 05:35:10;;;;;;;83.60;36.97;;;;;;;2.67;70.39;100512.28;5087291;28;20523;-66
2023/12/01 05:37:37;;;;;;;81.20;38.05;;;;;;;2.64;70.37;100513.56;5071320;28;20028;-67
2023/12/01 05:40:05;;;;;;;82.78;37.40;;;;;;;2.66;69.69;100514.19;5083111;28;20464;-69
2023/12/01 05:42:34;;;;;;;87.35;40.10;;;;;;;2.66;70.27;100521.56;5084805;28;20028;-67
2023/12/01 05:44:59;;;;;;;85.70;39.55;;;;;;;2.64;69.90;100521.78;5071620;28;20037;-67
2023/12/01 05:47:24;;;;;;;85.95;39.10;;;;;;;2.65;69.94;100522.63;5070740;28;20036;-67
2023/12/01 05:49:50;;;;;;;84.40;40.15;;;;;;;2.64;70.26;100530.03;5070817;28;20426;-66
2023/12/01 05:52:15;;;;;;;86.97;38.67;;;;;;;2.65;69.82;100528.13;5084616;28;20031;-67
2023/12/01 05:54:41;;;;;;;79.22;38.40;;;;;;;2.64;70.00;100537.41;5077444;28;20090;-68
2023/12/01 05:57:07;;;;;;;76.05;37.20;;;;;;;2.65;69.50;100530.84;5070343;28;20029;-70
2023/12/01 05:59:33;;;;;;;74.43;36.22;;;;;;;2.65;69.05;100534.44;5082616;28;20056;-70
2023/12/01 06:01:59;;;;;;;74.07;36.42;;;;;;;2.62;69.70;100532.09;5079240;28;20069;-71
2023/12/01 06:04:25;;;;;;;73.40;36.08;;;;;;;2.66;69.13;100541.59;5075614;28;20040;-70
2023/12/01 06:06:50;;;;;;;71.70;35.22;;;;;;;2.66;68.82;100535.28;5086407;28;20056;-67
2023/12/01 06:09:17;;;;;;;67.40;34.38;;;;;;;2.67;68.50;100536.94;5079465;28;20048;-67
2023/12/01 06:11:43;;;;;;;66.85;34.50;;;;;;;2.67;68.58;100546.03;5081891;28;20066;-67
2023/12/01 06:14:11;;;;;;;68.68;34.45;;;;;;;2.69;68.41;100532.13;5088482;28;20406;-67
2023/12/01 06:16:37;;;;;;;66.82;35.00;;;;;;;2.66;67.80;100530.63;5083861;28;20036;-68
2023/12/01 06:19:02;;;;;;;65.00;34.50;;;;;;;2.67;67.99;100534.22;5084525;28;20080;-67
2023/12/01 06:21:27;;;;;;;63.33;33.60;;;;;;;2.66;67.28;100535.28;5090643;28;20135;-67
2023/12/01 06:23:52;;;;;;;62.10;33.22;;;;;;;2.67;67.25;100532.34;5083268;28;20027;-69
2023/12/01 06:26:18;;;;;;;60.40;33.00;;;;;;;2.67;67.33;100542.44;5087555;28;20032;-67
2023/12/01 06:28:44;;;;;;;61.92;33.70;;;;;;;2.68;67.28;100539.50;5090388;28;20069;-67
2023/12/01 06:31:10;;;;;;;62.90;33.33;;;;;;;2.69;67.53;100540.34;5084462;28;20036;-69
2023/12/01 06:33:35;;;;;;;61.83;33.20;;;;;;;2.65;67.12;100539.06;5082223;28;20594;-69
2023/12/01 06:36:00;;;;;;;60.35;33.05;;;;;;;2.68;67.15;100545.00;5089309;28;20082;-67
2023/12/01 06:38:28;;;;;;;63.25;33.25;;;;;;;2.68;67.32;100547.72;5082478;28;20038;-67
2023/12/01 06:40:56;;;;;;;61.28;33.03;;;;;;;2.67;66.81;100548.78;5089212;28;20031;-67
2023/12/01 06:43:21;;;;;;;61.88;32.35;;;;;;;2.69;66.59;100557.63;5077797;28;20102;-67
2023/12/01 06:45:50;;;;;;;65.22;34.58;;;;;;;2.68;66.76;100553.22;5089463;28;20039;-67
2023/12/01 06:48:17;;;;;;;59.30;32.88;;;;;;;2.70;67.01;100552.97;5088590;28;20054;-68
2023/12/01 06:50:42;;;;;;;63.50;33.88;;;;;;;2.67;67.01;100553.41;5074339;28;20075;-67
2023/12/01 06:53:08;;;;;;;56.65;29.83;;;;;;;2.66;66.49;100557.19;5083123;28;20032;-69
2023/12/01 06:55:34;;;;;;;57.13;30.63;;;;;;;2.65;67.04;100558.25;5080540;28;20056;-67
2023/12/01 06:57:59;;;;;;;56.50;30.17;;;;;;;2.66;66.54;100557.19;5089742;28;20034;-67
2023/12/01 07:02:55;;;;;;;55.75;29.70;;;;;;;2.67;66.34;100567.09;5075868;28;20372;-69
2023/12/01 07:05:21;;;;;;;53.88;29.02;;;;;;;2.68;66.69;100563.31;5087664;28;20032;-67
2023/12/01 07:07:47;;;;;;;52.08;28.58;;;;;;;2.72;66.77;100566.50;5075846;28;20029;-67
2023/12/01 07:10:13;;;;;;;56.53;27.90;;;;;;;2.66;66.14;100566.25;5080620;28;20032;-69
2023/12/01 07:12:39;;;;;;;50.83;28.13;;;;;;;2.68;67.27;100572.38;5079377;28;20510;-70
2023/12/01 07:15:14;;;;;;;51.05;28.10;;;;;;;2.67;67.41;100578.94;5079081;28;20031;-67
2023/12/01 07:17:42;;;;;;;56.20;29.25;;;;;;;2.67;67.01;100573.44;5080594;28;20063;-67
2023/12/01 07:20:13;;;;;;;58.15;30.42;;;;;;;2.69;68.04;100582.28;5082210;28;20478;-67
2023/12/01 07:22:44;;;;;;;58.80;31.00;;;;;;;2.69;67.15;100585.03;5090159;28;20108;-67
2023/12/01 07:25:10;;;;;;;54.78;30.48;;;;;;;2.68;67.15;100577.88;5069190;28;20502;-69
2023/12/01 07:27:39;;;;;;;50.95;28.58;;;;;;;2.66;67.80;100582.69;5070467;28;20036;-65
2023/12/01 07:30:06;;;;;;;56.03;28.73;;;;;;;2.68;67.09;100577.88;5089526;28;20036;-66
2023/12/01 07:32:31;;;;;;;55.20;28.52;;;;;;;2.68;67.13;100588.00;5085592;28;20036;-65
2023/12/01 07:34:56;;;;;;;69.03;36.60;;;;;;;2.70;67.34;100580.38;5083331;28;20532;-68
2023/12/01 07:37:22;;;;;;;63.35;34.90;;;;;;;2.70;66.75;100581.22;5086999;28;20028;-65
2023/12/01 07:39:47;;;;;;;59.45;30.98;;;;;;;2.76;66.73;100578.72;5083967;28;20028;-65
2023/12/01 07:42:12;;;;;;;67.55;36.58;;;;;;;2.74;67.11;100583.56;5084460;28;20033;-65
2023/12/01 07:44:38;;;;;;;159.75;73.65;;;;;;;2.75;67.63;100579.75;5079054;28;20054;-66
2023/12/01 07:47:07;;;;;;;134.73;64.20;;;;;;;2.76;67.07;100584.22;5089903;28;20480;-66
2023/12/01 07:49:32;;;;;;;100.22;51.05;;;;;;;2.77;67.44;100584.00;5076608;28;21592;-67
2023/12/01 07:51:58;;;;;;;65.68;35.67;;;;;;;2.78;66.86;100582.09;5079987;28;20036;-68
2023/12/01 07:54:23;;;;;;;60.90;34.03;;;;;;;2.79;66.87;100583.78;5089298;28;20459;-65
2023/12/01 07:56:48;;;;;;;64.80;33.47;;;;;;;2.76;67.59;100584.22;5083162;28;20033;-65
2023/12/01 07:59:14;;;;;;;59.58;32.10;;;;;;;2.78;67.47;100582.94;5071246;28;20047;-64
2023/12/01 08:01:39;;;;;;;60.25;31.92;;;;;;;2.78;67.54;100582.09;5070839;28;20143;-64
2023/12/01 08:04:05;;;;;;;59.10;31.73;;;;;;;2.79;68.09;100584.63;5075005;28;20123;-67
2023/12/01 08:06:30;;;;;;;58.88;32.50;;;;;;;2.79;68.10;100578.28;5082948;28;20028;-61
2023/12/01 08:08:56;;;;;;;64.40;33.55;;;;;;;2.78;67.75;100584.84;5077292;28;20611;-61
2023/12/01 08:11:21;;;;;;;56.10;30.35;;;;;;;2.92;69.97;100589.28;5084947;28;20059;-64
2023/12/01 08:13:47;;;;;;;65.60;34.28;;;;;;;2.86;67.88;100584.63;5090067;28;20128;-65
2023/12/01 08:16:12;;;;;;;60.60;32.40;;;;;;;2.86;67.90;100584.63;5081295;28;20036;-64
2023/12/01 08:18:37;;;;;;;63.13;33.13;;;;;;;2.86;68.02;100590.09;5083699;28;20089;-65
2023/12/01 08:21:03;;;;;;;57.83;32.22;;;;;;;2.83;67.72;100596.00;5073708;28;20024;-65
2023/12/01 08:23:28;;;;;;;56.83;31.77;;;;;;;2.83;68.03;100587.78;5073801;28;20028;-67
2023/12/01 08:25:54;;;;;;;60.35;32.38;;;;;;;2.81;68.17;100592.66;5081070;28;20031;-64
2023/12/01 08:28:19;;;;;;;55.28;30.48;;;;;;;2.82;68.28;100599.81;5086600;28;20036;-65
2023/12/01 08:30:44;;;;;;;57.40;30.63;;;;;;;2.83;68.16;100604.22;5085600;28;20028;-64
2023/12/01 08:33:11;;;;;;;58.90;31.48;;;;;;;2.84;67.78;100598.56;5074327;28;20048;-65
2023/12/01 08:35:36;;;;;;;55.97;29.52;;;;;;;2.84;67.88;100605.94;5080851;28;20115;-64
2023/12/01 08:38:02;;;;;;;55.95;29.30;;;;;;;2.84;68.28;100605.94;5073369;28;20075;-64
2023/12/01 08:40:28;;;;;;;55.08;30.25;;;;;;;2.83;67.87;100607.84;5081077;28;20030;-63
2023/12/01 08:42:53;;;;;;;58.15;30.73;;;;;;;2.86;68.43;100617.53;5071173;28;20024;-65
2023/12/01 08:45:19;;;;;;;60.63;30.98;;;;;;;2.85;68.23;100616.69;5086859;28;20168;-63
2023/12/01 08:47:47;;;;;;;57.97;29.38;;;;;;;2.84;68.45;100619.66;5087641;28;20037;-64
2023/12/01 08:50:13;;;;;;;58.33;29.58;;;;;;;2.86;68.11;100623.00;5087382;28;20027;-64
2023/12/01 08:52:39;;;;;;;54.28;28.90;;;;;;;2.87;68.04;100619.19;5083733;28;20028;-63
2023/12/01 08:55:05;;;;;;;58.67;30.73;;;;;;;2.87;68.61;100610.97;5091884;28;20024;-63
2023/12/01 08:57:32;;;;;;;57.00;27.98;;;;;;;2.89;68.34;100614.38;5075790;28;20115;-64
2023/12/01 08:59:57;;;;;;;58.50;30.05;;;;;;;2.89;68.66;100617.13;5082570;28;20035;-64
2023/12/01 09:02:22;;;;;;;54.40;27.88;;;;;;;2.90;69.32;100618.78;5080539;28;20024;-65
2023/12/01 09:04:47;;;;;;;54.15;28.45;;;;;;;2.87;68.80;100619.19;5090775;28;20038;-65
2023/12/01 09:07:13;;;;;;;50.30;27.95;;;;;;;2.91;68.98;100617.75;5080604;28;20038;-65
2023/12/01 09:09:38;;;;;;;48.95;25.80;;;;;;;2.90;68.50;100627.84;5072592;28;20085;-59
2023/12/01 09:12:04;;;;;;;75.38;37.75;;;;;;;2.93;68.76;100626.59;5074081;28;20033;-62
2023/12/01 09:14:30;;;;;;;83.60;40.55;;;;;;;2.93;68.91;100626.59;5072117;28;20021;-62
2023/12/01 09:16:56;;;;;;;63.47;29.95;;;;;;;2.95;68.79;100630.84;5089799;28;20102;-62
2023/12/01 09:19:21;;;;;;;51.97;31.00;;;;;;;2.95;68.16;100633.59;5090279;28;20131;-61
2023/12/01 09:21:48;;;;;;;62.67;33.03;;;;;;;2.98;68.33;100637.78;5080555;28;20028;-65
2023/12/01 09:24:13;;;;;;;65.65;35.00;;;;;;;2.98;68.53;100646.00;5084611;28;20028;-64
2023/12/01 09:26:40;;;;;;;85.95;45.88;;;;;;;2.98;68.05;100632.28;5091558;28;20020;-64
2023/12/01 09:29:05;;;;;;;94.07;48.10;;;;;;;3.00;68.26;100643.91;5083796;28;20518;-64
2023/12/01 09:31:30;;;;;;;64.63;32.97;;;;;;;3.00;67.38;100652.13;5081564;28;20055;-64
2023/12/01 09:33:55;;;;;;;34.58;19.10;;;;;;;3.00;66.74;100652.13;5070769;28;20043;-65
2023/12/01 09:36:21;;;;;;;40.20;22.25;;;;;;;2.98;66.95;100648.75;5090989;28;20031;-64
2023/12/01 09:38:49;;;;;;;43.40;23.73;;;;;;;3.00;66.57;100641.19;5090603;28;20050;-64
2023/12/01 09:41:18;;;;;;;86.43;45.08;;;;;;;2.99;67.02;100647.72;5080220;28;20780;-66
2023/12/01 09:43:44;;;;;;;77.55;41.55;;;;;;;3.00;66.37;100652.13;5086062;28;20016;-65
2023/12/01 09:46:11;;;;;;;43.13;23.77;;;;;;;3.01;66.23;100648.34;5082172;28;20108;-60
2023/12/01 09:48:40;;;;;;;35.63;20.02;;;;;;;3.01;66.22;100666.69;5077447;28;20521;-65
2023/12/01 09:51:06;;;;;;;33.42;19.27;;;;;;;3.02;66.22;100665.63;5078840;28;20033;-64
2023/12/01 09:53:31;;;;;;;33.13;19.85;;;;;;;3.01;65.83;100670.28;5069726;28;20029;-65
2023/12/01 09:55:56;;;;;;;35.58;20.38;;;;;;;3.01;66.33;100663.94;5074722;28;20041;-64
2023/12/01 09:58:26;;;;;;;29.73;17.92;;;;;;;3.00;65.84;100667.75;5071702;28;20025;-65
2023/12/01 10:00:51;;;;;;;34.42;19.58;;;;;;;2.98;65.78;100658.88;5081284;28;20104;-66
2023/12/01 10:03:17;;;;;;;30.13;18.10;;;;;;;2.98;65.65;100665.19;5087704;28;20107;-65
2023/12/01 10:05:43;;;;;;;34.08;19.65;;;;;;;2.99;65.68;100661.44;5082899;28;20048;-67
2023/12/01 10:08:09;;;;;;;38.38;21.23;;;;;;;3.00;65.67;100663.09;5075538;28;20035;-65
2023/12/01 10:10:34;;;;;;;35.75;20.30;;;;;;;3.02;65.96;100660.16;5070453;28;20054;-64
2023/12/01 10:13:04;;;;;;;32.63;18.98;;;;;;;3.03;65.79;100659.97;5071480;28;20020;-64
2023/12/01 10:15:31;;;;;;;32.55;18.90;;;;;;;3.04;66.01;100666.28;5070120;28;20028;-64
2023/12/01 10:18:11;;;;;;;30.95;19.58;;;;;;;3.08;65.89;100660.16;5070494;28;20111;-64
2023/12/01 10:20:39;;;;;;;33.00;19.35;;;;;;;3.08;65.63;100662.06;5089732;28;20634;-65
2023/12/01 10:23:18;;;;;;;34.08;18.90;;;;;;;3.10;66.05;100669.00;5071774;28;20430;-65
2023/12/01 10:25:48;;;;;;;30.30;18.65;;;;;;;3.10;66.05;100660.78;5074068;28;20028;-67
2023/12/01 10:28:14;;;;;;;30.70;18.75;;;;;;;3.10;65.68;100669.00;5085571;28;20068;-64
2023/12/01 10:30:55;;;;;;;36.35;19.50;;;;;;;3.14;66.21;100663.97;5087314;28;20027;-66
2023/12/01 10:33:21;;;;;;;33.08;19.33;;;;;;;3.07;64.89;100665.88;5078780;28;20056;-64
2023/12/01 10:36:04;;;;;;;32.22;18.75;;;;;;;3.04;65.68;100669.03;5080415;28;20107;-64
2023/12/01 10:38:33;;;;;;;33.65;18.95;;;;;;;2.97;65.98;100669.00;5070478;28;20068;-63
2023/12/01 10:41:00;;;;;;;34.60;19.75;;;;;;;3.01;65.95;100661.22;5084780;28;20145;-64
2023/12/01 10:43:30;;;;;;;33.80;19.98;;;;;;;3.03;65.43;100662.69;5089610;28;20032;-64
2023/12/01 10:46:05;;;;;;;33.50;19.40;;;;;;;3.03;65.92;100662.69;5077637;28;20058;-66
2023/12/01 10:48:33;;;;;;;31.35;18.70;;;;;;;3.07;65.38;100661.22;5081362;28;20031;-58
2023/12/01 10:51:01;;;;;;;32.28;18.13;;;;;;;3.04;65.11;100664.38;5086223;28;20024;-62
2023/12/01 10:53:28;;;;;;;33.47;19.10;;;;;;;3.08;65.62;100660.16;5079724;28;20487;-64
2023/12/01 10:55:55;;;;;;;30.83;18.85;;;;;;;3.11;65.48;100653.44;5072628;28;20027;-62
2023/12/01 10:58:23;;;;;;;30.08;18.63;;;;;;;3.12;65.09;100658.69;5074165;28;20112;-63
2023/12/01 11:00:49;;;;;;;32.42;18.42;;;;;;;3.10;64.44;100652.56;5073357;28;20031;-60
2023/12/01 11:03:18;;;;;;;35.33;21.17;;;;;;;3.14;65.05;100656.59;5090442;28;20107;-65
2023/12/01 11:05:47;;;;;;;34.15;19.73;;;;;;;3.14;64.42;100648.38;5078501;28;20090;-65
2023/12/01 11:08:57;;;;;;;30.70;19.15;;;;;;;3.17;65.09;100652.56;5075125;28;20115;-65
2023/12/01 11:11:47;;;;;;;30.13;18.92;;;;;;;3.19;65.50;100651.31;5045730;28;20046;-70
2023/12/01 11:14:17;;;;;;;29.10;18.33;;;;;;;3.14;64.69;100653.84;5063661;28;20033;-63
2023/12/01 11:16:42;;;;;;;28.75;18.95;;;;;;;3.11;64.38;100648.78;5076624;28;21058;-64
2023/12/01 11:19:09;;;;;;;27.48;17.25;;;;;;;3.13;63.84;100651.31;5091381;28;20043;-64